Time;durP1;ratioP1;P1;durP2;ratioP2;P2;SDS_P1;SDS_P2;PMS_P1;PMS_P2;Temp;Humidity;BMP_temperature;BMP_pressure;BME280_temperature;BME280_humidity;BME280_pressure;Samples;Min_cycle;Max_cycle;Signal;HPM_P1;HPM_P2
2023/03/23 00:02:28;;;;;;;16.55;11.68;;;;;;;9.46;85.47;100326.19;7397350;19;20022;-58
2023/03/23 00:04:55;;;;;;;15.95;10.98;;;;;;;9.45;85.27;100311.25;7394453;19;19991;-56
2023/03/23 00:07:27;;;;;;;14.18;10.23;;;;;;;9.49;85.07;100320.63;7391768;19;20002;-56
2023/03/23 00:10:02;;;;;;;14.48;10.50;;;;;;;9.49;84.96;100325.09;7394379;19;19999;-57
2023/03/23 00:12:33;;;;;;;16.45;10.57;;;;;;;9.47;85.01;100336.66;7399226;19;20014;-59
2023/03/23 00:15:04;;;;;;;12.43;9.50;;;;;;;9.55;84.88;100330.72;7394166;19;20058;-57
2023/03/23 00:17:34;;;;;;;13.85;10.02;;;;;;;9.56;84.78;100324.44;7395585;19;19999;-59
2023/03/23 00:20:04;;;;;;;16.58;10.48;;;;;;;9.55;84.98;100317.44;7395441;19;20274;-59
2023/03/23 00:22:30;;;;;;;14.10;9.93;;;;;;;9.53;85.23;100302.66;7395490;19;20010;-61
2023/03/23 00:24:56;;;;;;;14.25;10.00;;;;;;;9.57;85.20;100320.00;7395636;19;20464;-57
2023/03/23 00:27:22;;;;;;;14.32;10.32;;;;;;;9.52;85.10;100308.91;7394338;19;20314;-56
2023/03/23 00:29:52;;;;;;;14.50;10.88;;;;;;;9.52;85.18;100306.25;7396038;19;20006;-57
2023/03/23 00:32:20;;;;;;;15.95;10.75;;;;;;;9.46;85.40;100300.50;7395749;19;20002;-57
2023/03/23 00:34:48;;;;;;;15.30;11.00;;;;;;;9.54;85.24;100299.03;7395182;19;20002;-57
2023/03/23 00:37:16;;;;;;;15.55;11.02;;;;;;;9.53;85.21;100292.88;7395851;19;20002;-57
2023/03/23 00:39:44;;;;;;;13.75;10.52;;;;;;;9.60;84.78;100295.84;7392540;19;20514;-57
2023/03/23 00:42:10;;;;;;;16.20;12.02;;;;;;;9.61;84.86;100293.06;7394267;19;20009;-57
2023/03/23 00:44:36;;;;;;;14.82;11.15;;;;;;;9.56;85.25;100282.03;7394744;19;20024;-57
2023/03/23 00:47:02;;;;;;;14.88;11.10;;;;;;;9.50;85.24;100281.69;7388372;19;20451;-65
2023/03/23 00:49:28;;;;;;;16.10;12.10;;;;;;;9.50;85.33;100285.19;7395329;19;20006;-66
2023/03/23 00:51:56;;;;;;;15.57;11.77;;;;;;;9.56;85.22;100279.38;7395616;19;19991;-65
2023/03/23 00:54:24;;;;;;;14.32;10.70;;;;;;;9.57;84.96;100274.91;7394415;19;20026;-66
2023/03/23 00:56:49;;;;;;;15.32;11.40;;;;;;;9.53;85.16;100265.53;7392067;19;20105;-65
2023/03/23 00:59:15;;;;;;;14.13;10.60;;;;;;;9.60;85.07;100269.31;7393222;19;20374;-64
2023/03/23 01:01:41;;;;;;;17.02;11.55;;;;;;;9.58;85.22;100271.28;7394893;19;20053;-66
2023/03/23 01:04:14;;;;;;;15.75;11.00;;;;;;;9.64;84.83;100257.50;7394877;19;20010;-68
2023/03/23 01:06:42;;;;;;;14.25;10.50;;;;;;;9.68;84.72;100258.91;7393786;19;20089;-65
2023/03/23 01:09:10;;;;;;;14.63;10.70;;;;;;;9.59;85.22;100252.56;7394287;19;20007;-64
2023/03/23 01:11:35;;;;;;;14.90;10.85;;;;;;;9.55;85.30;100243.19;7392633;19;20003;-63
2023/03/23 01:14:01;;;;;;;15.95;10.63;;;;;;;9.65;84.97;100248.56;7394552;19;19999;-65
2023/03/23 01:16:27;;;;;;;15.35;10.38;;;;;;;9.63;85.09;100253.13;7392163;19;19995;-64
2023/03/23 01:18:53;;;;;;;14.32;10.18;;;;;;;9.68;85.11;100249.13;7394221;19;19994;-66
2023/03/23 01:21:20;;;;;;;16.08;11.13;;;;;;;9.70;85.02;100243.69;7393680;19;20082;-65
2023/03/23 01:23:46;;;;;;;14.38;10.43;;;;;;;9.59;85.38;100247.25;7394213;19;20034;-65
2023/03/23 01:26:18;;;;;;;15.95;11.00;;;;;;;9.59;85.65;100252.56;7392846;19;19999;-63
2023/03/23 01:28:44;;;;;;;16.23;11.30;;;;;;;9.66;85.18;100260.84;7391067;19;20002;-64
2023/03/23 01:31:13;;;;;;;13.50;10.13;;;;;;;9.70;85.05;100249.00;7393444;19;20031;-63
2023/03/23 01:33:40;;;;;;;15.05;10.68;;;;;;;9.71;84.86;100240.91;7393975;19;20011;-64
2023/03/23 01:36:08;;;;;;;13.63;9.93;;;;;;;9.73;85.05;100243.44;7390979;19;20018;-64
2023/03/23 01:38:34;;;;;;;14.98;10.48;;;;;;;9.64;85.45;100239.78;7391011;19;20010;-64
2023/03/23 01:41:00;;;;;;;15.95;11.70;;;;;;;9.58;85.80;100228.84;7391867;19;20007;-65
2023/03/23 01:43:26;;;;;;;16.55;11.38;;;;;;;9.54;85.63;100230.91;7392425;19;20003;-64
2023/03/23 01:45:52;;;;;;;14.88;10.20;;;;;;;9.58;85.59;100228.84;7391139;19;20517;-66
2023/03/23 01:48:26;;;;;;;16.40;10.50;;;;;;;9.54;86.12;100222.13;7390832;19;20002;-64
2023/03/23 01:50:54;;;;;;;14.77;10.63;;;;;;;9.54;85.89;100228.25;7393395;19;20029;-64
2023/03/23 01:53:21;;;;;;;14.70;10.65;;;;;;;9.54;85.85;100217.66;7393559;19;20014;-64
2023/03/23 01:55:52;;;;;;;14.73;10.88;;;;;;;9.54;85.69;100227.44;7392000;19;20009;-67
2023/03/23 01:58:21;;;;;;;16.17;11.52;;;;;;;9.57;85.54;100232.47;7390322;19;20439;-66
2023/03/23 02:00:47;;;;;;;17.80;12.02;;;;;;;9.60;85.43;100233.06;7393150;19;20054;-66
2023/03/23 02:03:16;;;;;;;17.08;11.65;;;;;;;9.61;85.45;100236.53;7390499;19;20487;-67
2023/03/23 02:05:42;;;;;;;18.33;11.30;;;;;;;9.59;85.56;100226.03;7391960;19;20091;-66
2023/03/23 02:08:09;;;;;;;18.15;12.48;;;;;;;9.57;85.69;100214.75;7390904;19;20002;-64
2023/03/23 02:10:36;;;;;;;15.65;11.35;;;;;;;9.57;85.66;100221.88;7392440;19;20441;-65
2023/03/23 02:13:04;;;;;;;16.65;11.90;;;;;;;9.55;85.59;100221.16;7391928;19;19991;-65
2023/03/23 02:15:47;;;;;;;17.98;12.10;;;;;;;9.57;85.41;100211.25;7392085;19;20447;-64
2023/03/23 02:18:18;;;;;;;16.00;11.35;;;;;;;9.53;85.38;100199.25;7390326;19;20013;-67
2023/03/23 02:20:52;;;;;;;15.95;11.35;;;;;;;9.58;85.72;100191.72;7392725;19;20022;-66
2023/03/23 02:23:36;;;;;;;;;;;;;;;9.52;86.02;100186.94;7391201;19;20051;-66
2023/03/23 02:26:26;;;;;;;18.80;11.57;;;;;;;9.59;85.56;100178.31;7391467;19;19911;-67
2023/03/23 02:29:13;;;;;;;16.85;12.20;;;;;;;9.60;85.49;100180.00;7390425;19;20095;-67
2023/03/23 02:32:07;;;;;;;18.75;11.77;;;;;;;9.59;85.34;100177.47;7388195;19;20297;-67
2023/03/23 02:34:44;;;;;;;18.30;11.55;;;;;;;9.62;84.88;100170.09;7391897;19;20016;-65
2023/03/23 02:37:18;;;;;;;16.50;11.40;;;;;;;9.61;84.95;100176.38;7390688;19;20002;-64
2023/03/23 02:39:48;;;;;;;18.58;11.30;;;;;;;9.61;85.19;100171.06;7391474;19;20009;-63
2023/03/23 02:42:23;;;;;;;18.63;11.65;;;;;;;9.60;85.14;100168.53;7391435;19;20045;-64
2023/03/23 02:44:51;;;;;;;16.13;11.60;;;;;;;9.56;84.99;100177.72;7390502;19;20030;-63
2023/03/23 02:47:21;;;;;;;17.02;11.45;;;;;;;9.57;85.11;100171.47;7389736;19;20027;-63
2023/03/23 02:49:52;;;;;;;16.20;11.50;;;;;;;9.63;85.03;100160.31;7390970;19;20002;-63
2023/03/23 02:52:25;;;;;;;17.15;11.02;;;;;;;9.62;84.79;100154.19;7391058;19;20021;-63
2023/03/23 02:54:53;;;;;;;14.85;10.75;;;;;;;9.64;84.66;100133.69;7390223;19;20023;-64
2023/03/23 02:57:20;;;;;;;17.85;11.73;;;;;;;9.58;84.84;100131.56;7390087;19;20123;-64
2023/03/23 02:59:46;;;;;;;16.83;11.85;;;;;;;9.62;84.81;100111.75;7390663;19;20003;-64
2023/03/23 03:02:22;;;;;;;16.20;11.25;;;;;;;9.60;84.58;100136.72;7391244;19;20283;-64
2023/03/23 03:04:58;;;;;;;17.55;12.10;;;;;;;9.61;84.64;100138.41;7390043;19;19998;-64
2023/03/23 03:07:40;;;;;;;17.05;10.73;;;;;;;9.64;84.51;100130.19;7389213;19;20002;-63
2023/03/23 03:10:25;;;;;;;15.52;11.60;;;;;;;9.53;84.83;100107.25;7390855;19;19999;-63
2023/03/23 03:13:07;;;;;;;15.82;10.68;;;;;;;9.51;84.57;100111.84;7390694;19;20003;-64
2023/03/23 03:15:32;;;;;;;13.70;10.15;;;;;;;9.52;84.77;100107.38;7389647;19;20044;-64
2023/03/23 03:18:28;;;;;;;16.13;9.80;;;;;;;9.53;84.43;100098.47;7389692;19;20018;-64
2023/03/23 03:21:00;;;;;;;15.45;10.02;;;;;;;9.55;84.00;100096.50;7388801;19;20002;-64
2023/03/23 03:23:28;;;;;;;15.25;10.13;;;;;;;9.54;84.04;100084.25;7387773;19;20462;-64
2023/03/23 03:25:57;;;;;;;14.15;9.30;;;;;;;9.56;83.95;100088.44;7388080;19;20006;-64
2023/03/23 03:28:26;;;;;;;15.32;10.32;;;;;;;9.57;83.97;100099.88;7388402;19;20343;-63
2023/03/23 03:31:00;;;;;;;15.63;9.90;;;;;;;9.60;83.74;100097.81;7389551;19;20154;-65
2023/03/23 03:33:27;;;;;;;;;;;;;;;9.59;83.72;100108.53;7389592;19;20077;-63
2023/03/23 03:35:57;;;;;;;16.50;9.32;;;;;;;9.63;83.48;100089.53;7388966;19;19915;-63
2023/03/23 03:38:23;;;;;;;13.80;9.63;;;;;;;9.66;83.18;100085.78;7388261;19;19998;-63
2023/03/23 03:40:50;;;;;;;13.05;8.95;;;;;;;9.64;83.44;100104.50;7389647;19;20009;-66
2023/03/23 03:43:15;;;;;;;14.82;9.77;;;;;;;9.64;83.32;100093.91;7389573;19;20005;-66
2023/03/23 03:45:41;;;;;;;13.23;8.60;;;;;;;9.67;83.23;100109.50;7389605;19;19998;-64
2023/03/23 03:48:07;;;;;;;14.52;9.30;;;;;;;9.65;83.27;100115.94;7387636;19;20007;-64
2023/03/23 03:50:33;;;;;;;13.32;8.85;;;;;;;9.68;83.05;100111.22;7388308;19;20006;-64
2023/03/23 03:52:58;;;;;;;14.57;9.77;;;;;;;9.64;82.99;100111.63;7389973;19;20058;-64
2023/03/23 03:55:25;;;;;;;13.90;9.38;;;;;;;9.66;83.20;100112.31;7388550;19;20471;-64
2023/03/23 03:57:50;;;;;;;15.90;8.95;;;;;;;9.70;83.12;100111.06;7388828;19;20002;-64
2023/03/23 04:00:16;;;;;;;13.73;8.90;;;;;;;9.68;82.85;100111.22;7389569;19;20018;-67
2023/03/23 04:02:47;;;;;;;12.27;8.63;;;;;;;9.66;82.89;100109.66;7392139;19;20005;-65
2023/03/23 04:05:13;;;;;;;13.25;9.00;;;;;;;9.64;83.27;100109.81;7395810;19;20062;-65
2023/03/23 04:07:39;;;;;;;13.52;9.20;;;;;;;9.60;83.39;100118.16;7394707;19;20039;-65
2023/03/23 04:10:10;;;;;;;15.35;9.63;;;;;;;9.64;83.33;100117.78;7396355;19;20009;-65
2023/03/23 04:12:36;;;;;;;14.98;8.75;;;;;;;9.61;83.49;100115.38;7396949;19;19999;-65
2023/03/23 04:15:03;;;;;;;14.20;9.25;;;;;;;9.61;83.35;100109.25;7394795;19;20013;-64
2023/03/23 04:17:28;;;;;;;13.85;8.60;;;;;;;9.62;83.09;100110.91;7394987;19;20458;-64
2023/03/23 04:19:58;;;;;;;14.10;9.13;;;;;;;9.64;82.90;100109.81;7394295;19;19997;-64
2023/03/23 04:22:29;;;;;;;14.07;8.68;;;;;;;9.64;82.85;100107.16;7396374;19;19998;-64
2023/03/23 04:24:59;;;;;;;12.50;7.72;;;;;;;9.68;82.83;100108.56;7394849;19;20034;-64
2023/03/23 04:27:27;;;;;;;14.45;7.90;;;;;;;9.66;82.91;100107.00;7394511;19;19999;-64
2023/03/23 04:29:56;;;;;;;12.98;8.20;;;;;;;9.65;82.93;100108.81;7396655;19;20022;-64
2023/03/23 04:32:22;;;;;;;12.60;7.75;;;;;;;9.70;82.50;100106.59;7395565;19;20019;-65
2023/03/23 04:34:48;;;;;;;12.32;7.95;;;;;;;9.66;82.73;100115.81;7395108;19;19990;-65
2023/03/23 04:37:14;;;;;;;10.90;7.35;;;;;;;9.65;82.34;100119.44;7394843;19;20009;-64
2023/03/23 04:39:39;;;;;;;14.02;7.05;;;;;;;9.70;82.02;100114.56;7395485;19;20062;-65
2023/03/23 04:42:05;;;;;;;12.18;6.32;;;;;;;9.70;81.73;100109.25;7395368;19;20014;-65
2023/03/23 04:44:32;;;;;;;11.77;6.65;;;;;;;9.75;81.47;100097.38;7394259;19;19999;-64
2023/03/23 04:47:01;;;;;;;11.57;6.30;;;;;;;9.78;81.21;100097.13;7395158;19;20087;-64
2023/03/23 04:49:26;;;;;;;12.13;6.65;;;;;;;9.80;80.94;100089.88;7392896;19;20026;-64
2023/03/23 04:51:52;;;;;;;12.50;6.60;;;;;;;9.75;80.96;100092.91;7396260;19;20002;-64
2023/03/23 04:54:18;;;;;;;10.35;6.47;;;;;;;9.76;80.89;100093.78;7395768;19;20002;-65
2023/03/23 04:56:43;;;;;;;11.05;6.32;;;;;;;9.73;80.78;100083.44;7394496;19;20006;-65
2023/03/23 04:59:16;;;;;;;14.18;6.68;;;;;;;9.74;80.77;100101.03;7394326;19;20007;-65
2023/03/23 05:01:45;;;;;;;11.90;6.00;;;;;;;9.70;81.17;100092.50;7392607;19;20486;-66
2023/03/23 05:04:16;;;;;;;10.35;6.25;;;;;;;9.71;81.15;100096.81;7395001;19;20014;-65
2023/03/23 05:06:45;;;;;;;11.85;5.97;;;;;;;9.71;81.00;100099.47;7393274;19;20010;-65
2023/03/23 05:09:11;;;;;;;10.32;5.70;;;;;;;9.71;81.04;100092.38;7394601;19;20016;-66
2023/03/23 05:11:37;;;;;;;10.95;5.82;;;;;;;9.74;81.01;100096.56;7395345;19;20002;-66
2023/03/23 05:14:04;;;;;;;10.93;5.65;;;;;;;9.75;80.71;100092.91;7391182;19;20026;-66
2023/03/23 05:16:30;;;;;;;9.85;5.22;;;;;;;9.71;80.93;100088.88;7393889;19;20013;-66
2023/03/23 05:18:57;;;;;;;11.55;5.25;;;;;;;9.74;81.03;100095.72;7393894;19;20010;-66
2023/03/23 05:21:23;;;;;;;11.10;5.60;;;;;;;9.75;80.72;100097.38;7393906;19;19998;-65
2023/03/23 05:23:54;;;;;;;9.07;5.32;;;;;;;9.73;81.06;100099.34;7394572;19;20003;-65
2023/03/23 05:26:21;;;;;;;9.98;5.50;;;;;;;9.74;81.07;100101.84;7393422;19;20016;-67
2023/03/23 05:28:48;;;;;;;10.10;5.45;;;;;;;9.80;80.78;100092.53;7392084;19;20163;-66
2023/03/23 05:31:14;;;;;;;10.93;5.65;;;;;;;9.78;80.83;100091.81;7394677;19;20002;-67
2023/03/23 05:33:39;;;;;;;10.85;5.25;;;;;;;9.80;80.50;100085.41;7393875;19;20446;-66
2023/03/23 05:36:07;;;;;;;8.45;4.63;;;;;;;9.85;80.47;100077.06;7392838;19;20459;-67
2023/03/23 05:38:32;;;;;;;9.98;4.95;;;;;;;9.84;80.18;100067.44;7391360;19;20073;-66
2023/03/23 05:41:00;;;;;;;10.38;5.18;;;;;;;9.82;80.17;100067.53;7394313;19;20442;-66
2023/03/23 05:43:26;;;;;;;9.75;4.90;;;;;;;9.77;80.69;100076.88;7393343;19;20007;-68
2023/03/23 05:45:52;;;;;;;10.82;5.65;;;;;;;9.75;80.78;100069.03;7394331;19;20003;-68
2023/03/23 05:48:18;;;;;;;11.77;4.95;;;;;;;9.78;80.69;100068.78;7389646;19;20408;-65
2023/03/23 05:50:44;;;;;;;10.38;5.28;;;;;;;9.79;80.61;100078.44;7393627;19;19994;-70
2023/03/23 05:53:09;;;;;;;9.65;5.30;;;;;;;9.85;80.64;100087.66;7393914;19;20166;-68
2023/03/23 05:55:35;;;;;;;10.63;5.43;;;;;;;9.84;80.47;100084.19;7392478;19;20417;-70
2023/03/23 05:58:07;;;;;;;10.73;5.50;;;;;;;9.85;80.61;100093.81;7391552;19;20373;-67
2023/03/23 06:00:34;;;;;;;11.32;5.85;;;;;;;9.90;80.28;100085.44;7393209;19;20014;-68
2023/03/23 06:03:00;;;;;;;9.98;5.50;;;;;;;9.90;80.42;100104.84;7395397;19;19990;-66
2023/03/23 06:05:26;;;;;;;11.00;5.80;;;;;;;9.88;80.30;100084.75;7394717;19;20014;-67
2023/03/23 06:07:53;;;;;;;11.30;5.60;;;;;;;9.86;80.45;100087.53;7391508;19;19999;-67
2023/03/23 06:10:19;;;;;;;10.98;5.82;;;;;;;9.83;80.26;100095.78;7392427;19;19995;-67
2023/03/23 06:12:45;;;;;;;10.73;5.40;;;;;;;9.81;80.50;100094.19;7392218;19;20006;-69
2023/03/23 06:15:11;;;;;;;11.23;6.05;;;;;;;9.81;80.38;100083.59;7392266;19;20036;-70
2023/03/23 06:17:36;;;;;;;10.85;5.82;;;;;;;9.82;80.50;100096.69;7391031;19;20106;-69
2023/03/23 06:20:07;;;;;;;12.35;6.05;;;;;;;9.80;80.37;100096.03;7391712;19;19998;-68
2023/03/23 06:22:33;;;;;;;11.20;5.50;;;;;;;9.81;80.26;100099.50;7391133;19;20484;-67
2023/03/23 06:24:58;;;;;;;12.23;6.03;;;;;;;9.79;80.38;100104.09;7390083;19;19998;-66
2023/03/23 06:27:24;;;;;;;9.27;4.93;;;;;;;9.81;80.11;100095.03;7390694;19;20002;-69
2023/03/23 06:29:50;;;;;;;11.65;5.60;;;;;;;9.92;79.65;100105.56;7390110;19;20753;-68
2023/03/23 06:32:15;;;;;;;9.68;5.22;;;;;;;10.01;79.29;100101.22;7392151;19;20010;-67
2023/03/23 06:34:44;;;;;;;10.70;5.38;;;;;;;10.03;79.14;100093.16;7391100;19;20654;-69
2023/03/23 06:37:10;;;;;;;10.85;5.15;;;;;;;10.14;78.72;100104.47;7390510;19;20036;-66
2023/03/23 06:39:38;;;;;;;9.48;5.13;;;;;;;10.15;78.64;100107.94;7389733;19;20003;-69
2023/03/23 06:42:05;;;;;;;11.57;4.80;;;;;;;10.20;78.33;100098.56;7391918;19;20067;-67
2023/03/23 06:44:30;;;;;;;11.13;4.93;;;;;;;10.29;78.21;100102.22;7391044;19;19994;-68
2023/03/23 06:46:56;;;;;;;8.80;4.85;;;;;;;10.28;78.14;100105.84;7391311;19;19995;-67
2023/03/23 06:49:22;;;;;;;9.40;4.47;;;;;;;10.28;78.24;100107.66;7387813;19;20011;-68
2023/03/23 06:51:48;;;;;;;7.78;4.35;;;;;;;10.30;78.23;100105.72;7389382;19;19999;-69
2023/03/23 06:54:13;;;;;;;8.70;5.00;;;;;;;10.26;78.48;100109.63;7391970;19;20458;-67
2023/03/23 06:56:39;;;;;;;9.20;4.38;;;;;;;10.28;78.40;100128.91;7386903;19;20006;-67
2023/03/23 06:59:05;;;;;;;10.30;4.75;;;;;;;10.35;78.27;100108.78;7395203;19;20339;-68
2023/03/23 07:01:30;;;;;;;8.48;4.65;;;;;;;10.41;78.15;100132.13;7391072;19;20003;-68
2023/03/23 07:03:56;;;;;;;9.27;4.80;;;;;;;10.36;78.39;100124.59;7391834;19;20007;-68
2023/03/23 07:06:22;;;;;;;11.30;5.60;;;;;;;10.26;78.94;100129.06;7388998;19;20003;-68
2023/03/23 07:08:47;;;;;;;9.90;5.70;;;;;;;10.28;79.34;100139.53;7389612;19;19999;-68
2023/03/23 07:11:12;;;;;;;11.80;6.30;;;;;;;10.30;79.61;100138.41;7390409;19;20466;-68
2023/03/23 07:13:38;;;;;;;10.50;6.13;;;;;;;10.31;80.15;100134.78;7391269;19;20003;-67
2023/03/23 07:16:07;;;;;;;9.90;6.50;;;;;;;10.26;80.65;100144.16;7389895;19;20083;-67
2023/03/23 07:18:33;;;;;;;12.65;7.10;;;;;;;10.29;80.72;100165.94;7387065;19;20024;-68
2023/03/23 07:20:58;;;;;;;12.88;6.65;;;;;;;10.27;81.17;100177.69;7390302;19;19999;-67
2023/03/23 07:23:24;;;;;;;11.77;6.90;;;;;;;10.17;82.00;100190.91;7390716;19;20002;-68
2023/03/23 07:25:50;;;;;;;10.77;7.50;;;;;;;10.09;83.14;100199.56;7389769;19;20006;-66
2023/03/23 07:28:16;;;;;;;14.82;7.40;;;;;;;10.03;83.86;100208.09;7387894;19;20482;-66
2023/03/23 07:30:42;;;;;;;10.75;5.53;;;;;;;10.01;83.75;100211.84;7390486;19;20080;-68
2023/03/23 07:33:09;;;;;;;7.82;3.38;;;;;;;9.91;82.25;100212.69;7389427;19;20493;-68
2023/03/23 07:35:35;;;;;;;6.25;2.60;;;;;;;9.88;81.02;100199.66;7388869;19;20021;-67
2023/03/23 07:38:01;;;;;;;4.57;2.20;;;;;;;9.84;80.32;100198.25;7389204;19;20006;-68
2023/03/23 07:40:27;;;;;;;5.72;1.90;;;;;;;9.85;79.89;100194.63;7397109;19;20025;-68
2023/03/23 07:42:55;;;;;;;5.88;2.13;;;;;;;9.86;79.25;100203.41;7396605;19;20087;-66
2023/03/23 07:45:21;;;;;;;4.32;1.33;;;;;;;9.88;78.59;100193.53;7396966;19;20009;-67
2023/03/23 07:47:46;;;;;;;4.97;1.70;;;;;;;9.98;77.71;100182.91;7395265;19;20003;-68
2023/03/23 07:50:13;;;;;;;7.07;1.65;;;;;;;9.98;77.28;100173.19;7396540;19;20346;-67
2023/03/23 07:52:41;;;;;;;5.93;1.60;;;;;;;10.03;76.77;100189.53;7397583;19;19998;-68
2023/03/23 07:55:17;;;;;;;5.70;1.50;;;;;;;9.97;76.40;100197.19;7396549;19;20005;-67
2023/03/23 07:57:46;;;;;;;6.47;1.42;;;;;;;10.05;76.35;100199.97;7395479;19;20006;-67
2023/03/23 08:00:18;;;;;;;8.23;1.70;;;;;;;10.04;76.40;100209.75;7394816;19;20009;-66
2023/03/23 08:02:48;;;;;;;7.13;1.60;;;;;;;10.00;76.55;100205.72;7396738;19;19994;-68
2023/03/23 08:05:15;;;;;;;5.38;1.30;;;;;;;9.99;77.04;100212.00;7394203;19;20034;-67
2023/03/23 08:07:42;;;;;;;5.95;1.45;;;;;;;10.00;76.98;100218.13;7395412;19;20003;-68
2023/03/23 08:10:12;;;;;;;5.85;1.70;;;;;;;9.88;77.61;100220.06;7397051;19;20055;-67
2023/03/23 08:12:40;;;;;;;5.03;1.73;;;;;;;9.86;78.02;100222.84;7394239;19;20526;-67
2023/03/23 08:15:07;;;;;;;7.65;1.75;;;;;;;9.93;77.98;100233.75;7395021;19;20018;-67
2023/03/23 08:17:34;;;;;;;6.95;1.80;;;;;;;9.92;78.36;100235.56;7394441;19;20023;-67
2023/03/23 08:20:00;;;;;;;6.32;1.95;;;;;;;9.93;78.39;100231.94;7396434;19;20069;-66
2023/03/23 08:22:26;;;;;;;6.43;1.90;;;;;;;10.02;78.23;100232.97;7395699;19;20002;-67
2023/03/23 08:24:52;;;;;;;6.40;1.90;;;;;;;10.08;78.39;100231.56;7395732;19;20026;-67
2023/03/23 08:27:18;;;;;;;6.13;1.85;;;;;;;10.08;78.37;100237.72;7394798;19;19995;-67
2023/03/23 08:29:47;;;;;;;6.00;1.83;;;;;;;10.10;78.27;100234.94;7395247;19;20019;-67
2023/03/23 08:32:14;;;;;;;6.45;1.90;;;;;;;10.21;78.10;100240.13;7395266;19;20019;-66
2023/03/23 08:34:41;;;;;;;6.68;2.00;;;;;;;10.30;77.88;100246.44;7393009;19;19999;-66
2023/03/23 08:37:07;;;;;;;9.23;1.90;;;;;;;10.41;77.16;100238.34;7391981;19;20458;-67
2023/03/23 08:39:33;;;;;;;6.57;1.90;;;;;;;10.47;77.32;100247.56;7395396;19;20002;-68
2023/03/23 08:41:59;;;;;;;8.70;2.00;;;;;;;10.34;77.80;100247.84;7395194;19;20349;-68
2023/03/23 08:44:25;;;;;;;8.82;2.08;;;;;;;10.32;78.15;100250.63;7395349;19;20002;-67
2023/03/23 08:46:56;;;;;;;7.80;1.90;;;;;;;10.16;78.33;100240.53;7395057;19;20036;-67
2023/03/23 08:49:22;;;;;;;8.75;2.30;;;;;;;10.17;78.20;100246.66;7391711;19;20470;-67
2023/03/23 08:51:48;;;;;;;12.75;2.13;;;;;;;10.18;78.36;100243.06;7395997;19;20006;-68
2023/03/23 08:54:14;;;;;;;9.55;2.75;;;;;;;10.16;78.26;100240.53;7394027;19;20053;-67
2023/03/23 08:56:39;;;;;;;9.77;2.25;;;;;;;10.22;77.78;100247.13;7394299;19;20026;-68
2023/03/23 08:59:05;;;;;;;9.07;2.15;;;;;;;10.27;77.56;100244.88;7394239;19;20002;-68
2023/03/23 09:01:30;;;;;;;11.00;2.58;;;;;;;10.29;77.29;100244.75;7395174;19;20003;-68
2023/03/23 09:03:56;;;;;;;9.60;2.55;;;;;;;10.30;77.15;100247.28;7393621;19;20031;-67
2023/03/23 09:06:22;;;;;;;13.98;3.00;;;;;;;10.31;77.11;100248.94;7391599;19;20458;-67
2023/03/23 09:08:48;;;;;;;12.85;2.42;;;;;;;10.40;76.78;100249.94;7391526;19;20030;-67
2023/03/23 09:11:13;;;;;;;12.13;2.80;;;;;;;10.42;77.10;100250.66;7392498;19;20002;-67
2023/03/23 09:13:39;;;;;;;15.50;2.70;;;;;;;10.39;77.36;100259.72;7394370;19;20010;-67
2023/03/23 09:16:06;;;;;;;12.43;2.97;;;;;;;10.44;77.32;100257.50;7392242;19;20005;-68
2023/03/23 09:18:32;;;;;;;11.70;3.03;;;;;;;10.49;77.23;100266.88;7392125;19;20007;-68
2023/03/23 09:20:59;;;;;;;10.13;2.55;;;;;;;10.54;77.18;100261.97;7393340;19;20403;-68
2023/03/23 09:23:25;;;;;;;10.80;2.85;;;;;;;10.64;77.03;100262.84;7392507;19;20002;-68
2023/03/23 09:25:51;;;;;;;10.95;2.95;;;;;;;10.80;76.55;100255.16;7392204;19;19999;-68
2023/03/23 09:28:17;;;;;;;9.75;2.45;;;;;;;10.92;76.15;100269.97;7392624;19;20015;-68
2023/03/23 09:30:45;;;;;;;14.80;3.80;;;;;;;10.96;76.14;100269.69;7392491;19;20460;-68
2023/03/23 09:33:11;;;;;;;13.05;2.50;;;;;;;11.00;76.03;100277.25;7393965;19;20451;-68
2023/03/23 09:35:38;;;;;;;13.07;3.00;;;;;;;11.14;75.89;100260.03;7391430;19;19998;-68
2023/03/23 09:38:05;;;;;;;10.85;2.90;;;;;;;11.45;74.97;100265.19;7392100;19;20013;-68
2023/03/23 09:40:51;;;;;;;12.55;2.95;;;;;;;11.60;74.49;100263.75;7393364;19;20010;-68
2023/03/23 09:43:32;;;;;;;9.82;2.60;;;;;;;11.59;74.43;100265.56;7393072;19;20013;-69
2023/03/23 09:46:08;;;;;;;8.70;2.17;;;;;;;11.65;74.34;100272.13;7392325;19;20023;-68
2023/03/23 09:48:45;;;;;;;11.90;2.70;;;;;;;11.71;73.38;100273.38;7388873;19;20007;-68
2023/03/23 09:51:32;;;;;;;13.88;3.13;;;;;;;11.58;74.04;100282.53;7392552;19;20492;-68
2023/03/23 09:54:13;;;;;;;8.98;2.85;;;;;;;11.57;74.42;100288.81;7392440;19;19998;-67
2023/03/23 09:56:39;;;;;;;10.77;3.10;;;;;;;11.58;74.56;100282.53;7391793;19;20003;-67
2023/03/23 09:59:35;;;;;;;9.73;2.58;;;;;;;11.51;73.62;100291.22;7391601;19;20634;-64
2023/03/23 10:02:20;;;;;;;8.02;2.55;;;;;;;11.52;73.80;100271.63;7392340;19;19999;-65
2023/03/23 10:04:49;;;;;;;;;;;;;;;11.49;73.35;100274.56;7392513;19;19994;-65
2023/03/23 10:07:18;;;;;;;9.00;2.38;;;;;;;11.60;73.96;100285.88;7391766;19;19911;-65
2023/03/23 10:09:46;;;;;;;10.77;2.60;;;;;;;11.78;72.77;100293.94;7391393;19;20003;-65
2023/03/23 10:12:24;;;;;;;9.20;2.20;;;;;;;11.69;73.01;100293.97;7392421;19;20015;-65
2023/03/23 10:15:17;;;;;;;8.75;2.15;;;;;;;11.75;72.15;100315.53;7390900;19;20019;-67
2023/03/23 10:18:10;;;;;;;9.65;2.45;;;;;;;11.86;71.85;100322.50;7391721;19;19990;-65
2023/03/23 10:20:53;;;;;;;10.60;2.58;;;;;;;11.92;70.69;100313.09;7392038;19;19990;-65
2023/03/23 10:23:19;;;;;;;10.52;2.58;;;;;;;11.87;72.12;100319.69;7393679;19;20457;-65
2023/03/23 10:26:21;;;;;;;11.05;3.22;;;;;;;11.71;71.55;100302.66;7389782;19;20090;-66
2023/03/23 10:28:55;;;;;;;11.88;2.70;;;;;;;11.52;71.98;100316.84;7393285;19;20005;-66
2023/03/23 10:31:33;;;;;;;9.90;2.75;;;;;;;11.57;72.03;100325.22;7390238;19;20011;-66
2023/03/23 10:34:04;;;;;;;10.75;3.10;;;;;;;11.40;72.69;100324.16;7395196;19;20015;-65
2023/03/23 10:36:41;;;;;;;11.07;3.30;;;;;;;11.44;71.74;100319.38;7393718;19;20320;-66
2023/03/23 10:39:13;;;;;;;10.35;3.03;;;;;;;11.65;71.77;100307.56;7393489;19;20007;-66
2023/03/23 10:41:38;;;;;;;12.38;3.05;;;;;;;11.76;71.80;100311.03;7395660;19;20009;-66
2023/03/23 10:44:20;;;;;;;12.18;3.35;;;;;;;11.82;70.61;100321.94;7394335;19;20478;-66
2023/03/23 10:47:08;;;;;;;11.93;3.22;;;;;;;11.83;71.43;100312.13;7394093;19;20454;-65
2023/03/23 10:49:48;;;;;;;12.80;3.05;;;;;;;11.92;70.59;100321.06;7393386;19;20014;-65
2023/03/23 10:52:35;;;;;;;12.93;3.58;;;;;;;11.84;70.87;100319.97;7393429;19;20031;-66
2023/03/23 10:55:11;;;;;;;12.77;3.25;;;;;;;11.84;70.56;100314.63;7394680;19;20029;-65
2023/03/23 10:57:39;;;;;;;12.13;3.45;;;;;;;11.97;70.31;100310.84;7391651;19;19999;-65
2023/03/23 11:00:18;;;;;;;10.93;2.75;;;;;;;11.92;70.22;100321.91;7394405;19;20492;-66
2023/03/23 11:03:05;;;;;;;13.52;3.28;;;;;;;11.91;70.32;100312.25;7394344;19;20081;-66
2023/03/23 11:05:57;;;;;;;12.73;2.97;;;;;;;12.01;69.39;100325.53;7394300;19;19999;-67
2023/03/23 11:08:25;;;;;;;11.88;2.88;;;;;;;11.73;70.72;100324.63;7392288;19;20006;-65
2023/03/23 11:10:58;;;;;;;9.70;2.95;;;;;;;11.60;71.07;100322.28;7394828;19;20021;-65
2023/03/23 11:13:31;;;;;;;11.55;3.28;;;;;;;11.78;70.32;100315.25;7398499;19;20006;-66
2023/03/23 11:15:57;;;;;;;13.68;2.97;;;;;;;11.98;69.32;100309.84;7397465;19;20003;-65
2023/03/23 11:18:26;;;;;;;12.82;3.17;;;;;;;12.09;68.89;100310.50;7394134;19;19998;-66
2023/03/23 11:20:56;;;;;;;11.55;2.95;;;;;;;11.92;69.32;100318.41;7398718;19;20002;-66
2023/03/23 11:23:35;;;;;;;13.35;3.50;;;;;;;11.89;69.46;100322.22;7397395;19;20001;-66
2023/03/23 11:26:12;;;;;;;10.30;2.70;;;;;;;11.93;69.60;100339.56;7397465;19;20019;-66
2023/03/23 11:28:47;;;;;;;13.40;3.35;;;;;;;12.00;68.57;100347.78;7393978;19;19998;-66
2023/03/23 11:31:13;;;;;;;10.27;2.70;;;;;;;11.97;68.34;100332.97;7398609;19;20006;-65
2023/03/23 11:34:00;;;;;;;10.57;3.05;;;;;;;11.77;68.09;100331.34;7397503;19;20010;-65